sensor_id;sensor_type;location;lat;lon;timestamp;pressure;altitude;pressure_sealevel;temperature;humidity
70921;BME280;58572;48.110;19.838;2022-08-30T00:02:01;97991.34;;;17.32;87.83
70921;BME280;58572;48.110;19.838;2022-08-30T00:04:28;97991.19;;;16.94;90.46
70921;BME280;58572;48.110;19.838;2022-08-30T00:06:55;97965.66;;;16.68;90.70
70921;BME280;58572;48.110;19.838;2022-08-30T00:09:22;97994.91;;;16.72;90.96
70921;BME280;58572;48.110;19.838;2022-08-30T00:11:49;97989.88;;;16.74;90.76
70921;BME280;58572;48.110;19.838;2022-08-30T00:14:16;97995.69;;;17.59;85.25
70921;BME280;58572;48.110;19.838;2022-08-30T00:16:44;97989.41;;;17.41;85.89
70921;BME280;58572;48.110;19.838;2022-08-30T00:19:13;97989.25;;;17.72;84.11
70921;BME280;58572;48.110;19.838;2022-08-30T00:21:40;97937.03;;;17.38;84.08
70921;BME280;58572;48.110;19.838;2022-08-30T00:24:07;97998.47;;;17.33;86.99
70921;BME280;58572;48.110;19.838;2022-08-30T00:26:34;97991.19;;;17.46;85.07
70921;BME280;58572;48.110;19.838;2022-08-30T00:29:01;98003.31;;;16.84;88.43
70921;BME280;58572;48.110;19.838;2022-08-30T00:31:28;98004.97;;;16.54;90.37
70921;BME280;58572;48.110;19.838;2022-08-30T00:33:55;97881.69;;;16.67;85.55
70921;BME280;58572;48.110;19.838;2022-08-30T00:36:24;98006.38;;;16.74;89.25
70921;BME280;58572;48.110;19.838;2022-08-30T00:38:52;97999.91;;;17.48;84.50
70921;BME280;58572;48.110;19.838;2022-08-30T00:41:19;98013.00;;;16.99;87.02
70921;BME280;58572;48.110;19.838;2022-08-30T00:43:46;98003.44;;;16.31;90.58
70921;BME280;58572;48.110;19.838;2022-08-30T00:46:13;98009.97;;;16.52;89.96
70921;BME280;58572;48.110;19.838;2022-08-30T00:48:42;98005.41;;;16.79;88.19
70921;BME280;58572;48.110;19.838;2022-08-30T00:51:13;98003.16;;;16.81;88.40
70921;BME280;58572;48.110;19.838;2022-08-30T00:53:46;98008.97;;;17.22;85.30
70921;BME280;58572;48.110;19.838;2022-08-30T00:56:14;98005.06;;;17.58;83.24
70921;BME280;58572;48.110;19.838;2022-08-30T00:58:46;97998.91;;;17.61;83.29
70921;BME280;58572;48.110;19.838;2022-08-30T01:01:15;97993.94;;;16.85;87.55
70921;BME280;58572;48.110;19.838;2022-08-30T01:03:42;97993.28;;;17.49;83.49
70921;BME280;58572;48.110;19.838;2022-08-30T01:06:10;97996.59;;;16.59;87.84
70921;BME280;58572;48.110;19.838;2022-08-30T01:08:39;97994.28;;;17.01;86.32
70921;BME280;58572;48.110;19.838;2022-08-30T01:11:08;97993.13;;;16.94;85.72
70921;BME280;58572;48.110;19.838;2022-08-30T01:13:37;97986.50;;;17.46;83.42
70921;BME280;58572;48.110;19.838;2022-08-30T01:16:05;97940.97;;;16.85;84.60
70921;BME280;58572;48.110;19.838;2022-08-30T01:18:33;97984.22;;;17.48;82.70
70921;BME280;58572;48.110;19.838;2022-08-30T01:21:06;97979.50;;;17.58;82.50
70921;BME280;58572;48.110;19.838;2022-08-30T01:23:39;97986.25;;;16.56;87.65
70921;BME280;58572;48.110;19.838;2022-08-30T01:26:08;97989.22;;;16.20;89.52
70921;BME280;58572;48.110;19.838;2022-08-30T01:28:37;97983.75;;;16.69;87.33
70921;BME280;58572;48.110;19.838;2022-08-30T01:31:05;97986.34;;;17.26;83.98
70921;BME280;58572;48.110;19.838;2022-08-30T01:33:34;97989.84;;;16.17;88.90
70921;BME280;58572;48.110;19.838;2022-08-30T01:36:05;97986.03;;;16.36;88.91
70921;BME280;58572;48.110;19.838;2022-08-30T01:38:41;97986.25;;;16.08;89.10
70921;BME280;58572;48.110;19.838;2022-08-30T01:41:11;97978.25;;;16.20;88.69
70921;BME280;58572;48.110;19.838;2022-08-30T01:43:39;97940.44;;;15.69;89.02
70921;BME280;58572;48.110;19.838;2022-08-30T01:46:09;97985.47;;;16.08;89.23
70921;BME280;58572;48.110;19.838;2022-08-30T01:48:37;97984.59;;;15.99;89.83
70921;BME280;58572;48.110;19.838;2022-08-30T01:51:05;97979.69;;;16.18;89.10
70921;BME280;58572;48.110;19.838;2022-08-30T01:53:32;97990.66;;;16.18;88.68
70921;BME280;58572;48.110;19.838;2022-08-30T01:56:02;97981.78;;;16.21;88.96
70921;BME280;58572;48.110;19.838;2022-08-30T01:58:30;97937.22;;;15.67;89.29
70921;BME280;58572;48.110;19.838;2022-08-30T02:00:57;97967.94;;;16.83;85.13
70921;BME280;58572;48.110;19.838;2022-08-30T02:03:24;97971.66;;;16.30;88.21
70921;BME280;58572;48.110;19.838;2022-08-30T02:05:55;97969.97;;;15.72;91.13
70921;BME280;58572;48.110;19.838;2022-08-30T02:08:22;97972.94;;;16.81;85.09
70921;BME280;58572;48.110;19.838;2022-08-30T02:10:49;97979.19;;;15.76;90.64
70921;BME280;58572;48.110;19.838;2022-08-30T02:13:17;97973.69;;;15.76;90.76
70921;BME280;58572;48.110;19.838;2022-08-30T02:15:44;97914.66;;;15.70;88.81
70921;BME280;58572;48.110;19.838;2022-08-30T02:18:11;97966.00;;;16.75;85.51
70921;BME280;58572;48.110;19.838;2022-08-30T02:20:38;97969.75;;;16.39;87.44
70921;BME280;58572;48.110;19.838;2022-08-30T02:23:06;97973.56;;;15.81;90.21
70921;BME280;58572;48.110;19.838;2022-08-30T02:25:33;97973.59;;;15.90;90.13
70921;BME280;58572;48.110;19.838;2022-08-30T02:28:00;97965.94;;;16.09;88.96
70921;BME280;58572;48.110;19.838;2022-08-30T02:30:29;97960.53;;;16.35;86.75
70921;BME280;58572;48.110;19.838;2022-08-30T02:32:56;97897.19;;;16.06;86.42
70921;BME280;58572;48.110;19.838;2022-08-30T02:35:24;97963.63;;;15.94;89.15
70921;BME280;58572;48.110;19.838;2022-08-30T02:37:51;97968.03;;;15.73;90.06
70921;BME280;58572;48.110;19.838;2022-08-30T02:40:18;97970.06;;;15.89;89.23
70921;BME280;58572;48.110;19.838;2022-08-30T02:42:46;97969.13;;;16.03;88.93
70921;BME280;58572;48.110;19.838;2022-08-30T02:45:14;97975.75;;;16.50;85.65
70921;BME280;58572;48.110;19.838;2022-08-30T02:47:43;97847.94;;;15.52;86.51
70921;BME280;58572;48.110;19.838;2022-08-30T02:50:10;97976.22;;;15.95;88.59
70921;BME280;58572;48.110;19.838;2022-08-30T02:52:37;97970.53;;;15.91;88.72
70921;BME280;58572;48.110;19.838;2022-08-30T02:55:06;97976.88;;;16.01;88.32
70921;BME280;58572;48.110;19.838;2022-08-30T02:57:33;97965.13;;;16.09;87.67
70921;BME280;58572;48.110;19.838;2022-08-30T03:00:00;97965.56;;;16.50;84.80
70921;BME280;58572;48.110;19.838;2022-08-30T03:02:27;97972.88;;;16.07;86.91
70921;BME280;58572;48.110;19.838;2022-08-30T03:04:56;97970.91;;;15.99;87.71
70921;BME280;58572;48.110;19.838;2022-08-30T03:07:23;97972.06;;;16.06;87.48
70921;BME280;58572;48.110;19.838;2022-08-30T03:09:50;97973.09;;;16.27;85.28
70921;BME280;58572;48.110;19.838;2022-08-30T03:12:17;97968.53;;;15.75;88.53
70921;BME280;58572;48.110;19.838;2022-08-30T03:14:45;97959.44;;;16.53;83.86
70921;BME280;58572;48.110;19.838;2022-08-30T03:17:13;97973.09;;;16.76;83.12
70921;BME280;58572;48.110;19.838;2022-08-30T03:19:43;97980.69;;;16.79;82.41
70921;BME280;58572;48.110;19.838;2022-08-30T03:22:12;97979.41;;;16.85;82.76
70921;BME280;58572;48.110;19.838;2022-08-30T03:24:39;97968.75;;;16.83;82.49
70921;BME280;58572;48.110;19.838;2022-08-30T03:27:07;97981.31;;;16.27;85.48
70921;BME280;58572;48.110;19.838;2022-08-30T03:29:34;97972.31;;;16.36;84.44
70921;BME280;58572;48.110;19.838;2022-08-30T03:32:01;97963.22;;;16.18;84.99
70921;BME280;58572;48.110;19.838;2022-08-30T03:34:29;97981.19;;;16.33;84.49
70921;BME280;58572;48.110;19.838;2022-08-30T03:36:56;97978.28;;;15.89;86.53
70921;BME280;58572;48.110;19.838;2022-08-30T03:39:27;97984.59;;;16.38;84.36
70921;BME280;58572;48.110;19.838;2022-08-30T03:41:54;97988.41;;;15.58;88.04
70921;BME280;58572;48.110;19.838;2022-08-30T03:44:21;97991.41;;;15.70;87.78
70921;BME280;58572;48.110;19.838;2022-08-30T03:46:48;97991.91;;;16.12;84.89
70921;BME280;58572;48.110;19.838;2022-08-30T03:49:17;97988.97;;;16.48;83.12
70921;BME280;58572;48.110;19.838;2022-08-30T03:51:44;97952.81;;;16.46;82.27
70921;BME280;58572;48.110;19.838;2022-08-30T03:54:11;98000.22;;;16.69;82.65
70921;BME280;58572;48.110;19.838;2022-08-30T03:56:40;97992.78;;;16.69;82.38
70921;BME280;58572;48.110;19.838;2022-08-30T03:59:07;97988.75;;;16.75;81.92
70921;BME280;58572;48.110;19.838;2022-08-30T04:01:35;97995.81;;;16.19;83.79
70921;BME280;58572;48.110;19.838;2022-08-30T04:04:02;97996.72;;;15.30;88.35
70921;BME280;58572;48.110;19.838;2022-08-30T04:06:29;97994.94;;;16.41;83.36
70921;BME280;58572;48.110;19.838;2022-08-30T04:08:57;97999.63;;;16.49;82.81
70921;BME280;58572;48.110;19.838;2022-08-30T04:11:25;98008.56;;;15.17;88.76
70921;BME280;58572;48.110;19.838;2022-08-30T04:13:53;98002.28;;;15.39;88.37
70921;BME280;58572;48.110;19.838;2022-08-30T04:16:21;98002.19;;;15.98;84.85
70921;BME280;58572;48.110;19.838;2022-08-30T04:18:48;97997.19;;;16.39;83.30
70921;BME280;58572;48.110;19.838;2022-08-30T04:21:15;98009.56;;;15.88;85.78
70921;BME280;58572;48.110;19.838;2022-08-30T04:23:43;98009.44;;;15.26;88.52
70921;BME280;58572;48.110;19.838;2022-08-30T04:26:11;98016.34;;;15.91;85.61
70921;BME280;58572;48.110;19.838;2022-08-30T04:28:38;98006.19;;;15.24;89.58
70921;BME280;58572;48.110;19.838;2022-08-30T04:31:09;98015.91;;;15.30;88.82
70921;BME280;58572;48.110;19.838;2022-08-30T04:33:36;98012.00;;;15.90;86.20
70921;BME280;58572;48.110;19.838;2022-08-30T04:36:05;97910.34;;;14.80;87.89
70921;BME280;58572;48.110;19.838;2022-08-30T04:38:36;97974.28;;;14.84;89.69
70921;BME280;58572;48.110;19.838;2022-08-30T04:41:08;97984.78;;;15.49;86.44
70921;BME280;58572;48.110;19.838;2022-08-30T04:43:36;97934.84;;;14.85;88.30
70921;BME280;58572;48.110;19.838;2022-08-30T04:46:06;98029.97;;;15.38;88.95
70921;BME280;58572;48.110;19.838;2022-08-30T04:48:36;98027.16;;;16.27;83.73
70921;BME280;58572;48.110;19.838;2022-08-30T04:51:04;97950.78;;;15.72;83.00
70921;BME280;58572;48.110;19.838;2022-08-30T04:53:32;98047.84;;;15.71;87.35
70921;BME280;58572;48.110;19.838;2022-08-30T04:55:59;98038.22;;;15.82;86.50
70921;BME280;58572;48.110;19.838;2022-08-30T04:58:26;98055.50;;;16.14;83.88
70921;BME280;58572;48.110;19.838;2022-08-30T05:00:53;98060.25;;;15.55;88.58
70921;BME280;58572;48.110;19.838;2022-08-30T05:03:21;98033.25;;;15.84;84.46
70921;BME280;58572;48.110;19.838;2022-08-30T05:05:49;98010.06;;;15.23;88.60
70921;BME280;58572;48.110;19.838;2022-08-30T05:08:18;98055.94;;;15.76;86.43
70921;BME280;58572;48.110;19.838;2022-08-30T05:10:48;98056.66;;;15.90;85.23
70921;BME280;58572;48.110;19.838;2022-08-30T05:13:17;98064.59;;;15.92;87.00
70921;BME280;58572;48.110;19.838;2022-08-30T05:15:45;98071.22;;;16.31;83.52
70921;BME280;58572;48.110;19.838;2022-08-30T05:18:13;98069.44;;;16.26;83.62
70921;BME280;58572;48.110;19.838;2022-08-30T05:20:41;98068.38;;;16.44;82.74
70921;BME280;58572;48.110;19.838;2022-08-30T05:23:10;98068.22;;;16.41;82.74
70921;BME280;58572;48.110;19.838;2022-08-30T05:25:38;98075.59;;;16.32;82.86
70921;BME280;58572;48.110;19.838;2022-08-30T05:28:06;98076.97;;;15.89;85.80
70921;BME280;58572;48.110;19.838;2022-08-30T05:30:35;98077.06;;;16.38;82.35
70921;BME280;58572;48.110;19.838;2022-08-30T05:33:03;98080.41;;;16.26;84.33
70921;BME280;58572;48.110;19.838;2022-08-30T05:35:31;98082.84;;;16.27;84.10
70921;BME280;58572;48.110;19.838;2022-08-30T05:37:58;98084.09;;;16.21;84.55
70921;BME280;58572;48.110;19.838;2022-08-30T05:40:26;98084.22;;;15.85;85.62
70921;BME280;58572;48.110;19.838;2022-08-30T05:42:53;98084.31;;;16.34;83.07
70921;BME280;58572;48.110;19.838;2022-08-30T05:45:20;98078.16;;;16.28;83.43
70921;BME280;58572;48.110;19.838;2022-08-30T05:47:48;98089.84;;;16.42;82.43
70921;BME280;58572;48.110;19.838;2022-08-30T05:50:15;98059.41;;;15.90;85.79
70921;BME280;58572;48.110;19.838;2022-08-30T05:52:42;98053.31;;;15.71;86.16
70921;BME280;58572;48.110;19.838;2022-08-30T05:55:11;98092.16;;;16.18;84.20
70921;BME280;58572;48.110;19.838;2022-08-30T05:57:40;98092.28;;;16.13;85.52
70921;BME280;58572;48.110;19.838;2022-08-30T06:00:09;98085.25;;;15.98;86.46
70921;BME280;58572;48.110;19.838;2022-08-30T06:02:38;98094.69;;;15.83;87.81
70921;BME280;58572;48.110;19.838;2022-08-30T06:05:06;98026.28;;;15.78;84.21
70921;BME280;58572;48.110;19.838;2022-08-30T06:07:33;98092.09;;;16.09;86.30
70921;BME280;58572;48.110;19.838;2022-08-30T06:10:00;98099.84;;;16.07;87.18
70921;BME280;58572;48.110;19.838;2022-08-30T06:12:27;98089.63;;;16.30;83.72
70921;BME280;58572;48.110;19.838;2022-08-30T06:14:56;98023.63;;;15.51;86.95
70921;BME280;58572;48.110;19.838;2022-08-30T06:17:23;98064.47;;;15.75;88.58
70921;BME280;58572;48.110;19.838;2022-08-30T06:19:51;98081.97;;;15.87;86.72
70921;BME280;58572;48.110;19.838;2022-08-30T06:22:18;98091.75;;;16.33;83.54
70921;BME280;58572;48.110;19.838;2022-08-30T06:24:45;98096.09;;;16.03;85.14
70921;BME280;58572;48.110;19.838;2022-08-30T06:27:12;98097.22;;;16.33;84.64
70921;BME280;58572;48.110;19.838;2022-08-30T06:29:40;98101.53;;;16.25;84.47
70921;BME280;58572;48.110;19.838;2022-08-30T06:32:08;98099.19;;;16.10;87.90
70921;BME280;58572;48.110;19.838;2022-08-30T06:34:35;98096.78;;;16.09;87.65
70921;BME280;58572;48.110;19.838;2022-08-30T06:37:05;98095.06;;;16.21;85.07
70921;BME280;58572;48.110;19.838;2022-08-30T06:39:32;98102.16;;;16.53;82.93
70921;BME280;58572;48.110;19.838;2022-08-30T06:41:59;98096.34;;;16.15;88.32
70921;BME280;58572;48.110;19.838;2022-08-30T06:44:26;98100.56;;;16.21;85.48
70921;BME280;58572;48.110;19.838;2022-08-30T06:46:53;98100.03;;;16.50;84.42
70921;BME280;58572;48.110;19.838;2022-08-30T06:49:21;98093.06;;;16.67;83.17
70921;BME280;58572;48.110;19.838;2022-08-30T06:51:48;98101.78;;;16.38;86.10
70921;BME280;58572;48.110;19.838;2022-08-30T06:54:16;98103.34;;;16.30;86.55
70921;BME280;58572;48.110;19.838;2022-08-30T06:56:43;98095.97;;;16.39;86.58
70921;BME280;58572;48.110;19.838;2022-08-30T06:59:10;98096.59;;;16.36;87.71
70921;BME280;58572;48.110;19.838;2022-08-30T07:01:38;98017.19;;;16.00;88.20
70921;BME280;58572;48.110;19.838;2022-08-30T07:04:05;98091.53;;;16.60;88.46
70921;BME280;58572;48.110;19.838;2022-08-30T07:06:34;98095.03;;;16.75;84.38
70921;BME280;58572;48.110;19.838;2022-08-30T07:09:01;98089.72;;;16.87;83.53
70921;BME280;58572;48.110;19.838;2022-08-30T07:11:33;98100.72;;;16.87;85.50
70921;BME280;58572;48.110;19.838;2022-08-30T07:14:02;98097.81;;;16.92;85.77
70921;BME280;58572;48.110;19.838;2022-08-30T07:16:30;98103.59;;;16.82;86.34
70921;BME280;58572;48.110;19.838;2022-08-30T07:18:58;98105.22;;;16.83;85.12
70921;BME280;58572;48.110;19.838;2022-08-30T07:21:27;98104.00;;;17.15;82.28
70921;BME280;58572;48.110;19.838;2022-08-30T07:23:57;98093.88;;;17.67;81.60
70921;BME280;58572;48.110;19.838;2022-08-30T07:26:27;98096.16;;;17.82;78.43
70921;BME280;58572;48.110;19.838;2022-08-30T07:28:55;98104.84;;;17.41;85.45
70921;BME280;58572;48.110;19.838;2022-08-30T07:31:23;98106.28;;;17.39;84.36
70921;BME280;58572;48.110;19.838;2022-08-30T07:33:50;98104.19;;;17.36;84.70
70921;BME280;58572;48.110;19.838;2022-08-30T07:36:18;98069.09;;;17.50;81.97
70921;BME280;58572;48.110;19.838;2022-08-30T07:38:47;98099.00;;;18.12;82.68
70921;BME280;58572;48.110;19.838;2022-08-30T07:41:21;98103.13;;;18.44;77.78
70921;BME280;58572;48.110;19.838;2022-08-30T07:43:49;98102.75;;;17.99;81.47
70921;BME280;58572;48.110;19.838;2022-08-30T07:46:17;98101.25;;;18.18;79.99
70921;BME280;58572;48.110;19.838;2022-08-30T07:48:44;98107.56;;;18.19;82.92
70921;BME280;58572;48.110;19.838;2022-08-30T07:51:13;98102.13;;;18.48;78.12
70921;BME280;58572;48.110;19.838;2022-08-30T07:53:40;98105.50;;;18.63;79.51
70921;BME280;58572;48.110;19.838;2022-08-30T07:56:07;98102.56;;;19.06;77.10
70921;BME280;58572;48.110;19.838;2022-08-30T07:58:36;98061.47;;;18.92;77.93
70921;BME280;58572;48.110;19.838;2022-08-30T08:01:05;98111.34;;;19.29;79.01
70921;BME280;58572;48.110;19.838;2022-08-30T08:03:32;98100.72;;;19.39;78.49
70921;BME280;58572;48.110;19.838;2022-08-30T08:06:01;98103.72;;;19.26;78.28
70921;BME280;58572;48.110;19.838;2022-08-30T08:08:28;98087.53;;;19.24;77.26
70921;BME280;58572;48.110;19.838;2022-08-30T08:10:56;98109.72;;;19.28;76.96
70921;BME280;58572;48.110;19.838;2022-08-30T08:13:23;98101.88;;;19.59;76.05
70921;BME280;58572;48.110;19.838;2022-08-30T08:15:51;98106.31;;;19.72;78.69
70921;BME280;58572;48.110;19.838;2022-08-30T08:18:19;98105.44;;;19.60;79.25
70921;BME280;58572;48.110;19.838;2022-08-30T08:20:46;98110.56;;;19.70;74.61
70921;BME280;58572;48.110;19.838;2022-08-30T08:23:14;98114.69;;;19.85;74.34
70921;BME280;58572;48.110;19.838;2022-08-30T08:25:41;98101.59;;;19.94;73.94
70921;BME280;58572;48.110;19.838;2022-08-30T08:28:08;98100.53;;;20.19;75.03
70921;BME280;58572;48.110;19.838;2022-08-30T08:30:36;98110.53;;;20.12;74.31
70921;BME280;58572;48.110;19.838;2022-08-30T08:33:05;98109.94;;;20.39;75.59
70921;BME280;58572;48.110;19.838;2022-08-30T08:35:33;98102.94;;;20.54;72.25
70921;BME280;58572;48.110;19.838;2022-08-30T08:38:00;98099.97;;;21.08;70.71
70921;BME280;58572;48.110;19.838;2022-08-30T08:40:27;98103.22;;;20.97;75.22
70921;BME280;58572;48.110;19.838;2022-08-30T08:43:02;98102.91;;;20.42;78.21
70921;BME280;58572;48.110;19.838;2022-08-30T08:45:39;98096.25;;;20.55;68.24
70921;BME280;58572;48.110;19.838;2022-08-30T08:48:13;98097.91;;;20.92;70.32
70921;BME280;58572;48.110;19.838;2022-08-30T08:50:42;98094.66;;;20.78;72.65
70921;BME280;58572;48.110;19.838;2022-08-30T08:53:31;98091.78;;;20.17;77.00
70921;BME280;58572;48.110;19.838;2022-08-30T08:56:05;98099.41;;;20.32;78.03
70921;BME280;58572;48.110;19.838;2022-08-30T08:58:41;98098.25;;;20.21;79.92
70921;BME280;58572;48.110;19.838;2022-08-30T09:01:09;98095.59;;;19.50;82.22
70921;BME280;58572;48.110;19.838;2022-08-30T09:03:39;98095.75;;;19.95;78.91
70921;BME280;58572;48.110;19.838;2022-08-30T09:06:19;98083.53;;;19.84;78.26
70921;BME280;58572;48.110;19.838;2022-08-30T09:08:49;98091.97;;;20.00;77.86
70921;BME280;58572;48.110;19.838;2022-08-30T09:11:21;98079.47;;;20.72;72.47
70921;BME280;58572;48.110;19.838;2022-08-30T09:13:49;97851.38;;;19.73;75.77
70921;BME280;58572;48.110;19.838;2022-08-30T09:19:03;98079.66;;;21.80;73.70
70921;BME280;58572;48.110;19.838;2022-08-30T09:21:30;98077.38;;;22.10;70.90
70921;BME280;58572;48.110;19.838;2022-08-30T09:24:01;98080.66;;;21.60;72.17
70921;BME280;58572;48.110;19.838;2022-08-30T09:26:30;98086.94;;;21.20;72.76
70921;BME280;58572;48.110;19.838;2022-08-30T09:28:57;98080.00;;;21.91;67.30
70921;BME280;58572;48.110;19.838;2022-08-30T09:31:27;98075.16;;;21.88;69.81
70921;BME280;58572;48.110;19.838;2022-08-30T09:33:55;98076.88;;;21.52;68.27
70921;BME280;58572;48.110;19.838;2022-08-30T09:36:26;98077.47;;;21.86;68.15
70921;BME280;58572;48.110;19.838;2022-08-30T09:39:00;98079.44;;;21.45;69.66
70921;BME280;58572;48.110;19.838;2022-08-30T09:41:34;98074.06;;;21.24;68.90
70921;BME280;58572;48.110;19.838;2022-08-30T09:44:06;98055.78;;;20.95;70.79
70921;BME280;58572;48.110;19.838;2022-08-30T09:46:43;98078.78;;;20.99;71.18
70921;BME280;58572;48.110;19.838;2022-08-30T09:49:34;98078.78;;;21.12;71.05
70921;BME280;58572;48.110;19.838;2022-08-30T09:52:31;98075.38;;;21.55;74.45
70921;BME280;58572;48.110;19.838;2022-08-30T09:55:12;98062.38;;;22.11;71.45
70921;BME280;58572;48.110;19.838;2022-08-30T09:57:49;98066.00;;;21.99;70.15
70921;BME280;58572;48.110;19.838;2022-08-30T10:00:20;98063.03;;;22.68;69.17
70921;BME280;58572;48.110;19.838;2022-08-30T10:02:58;98058.56;;;22.47;67.38
70921;BME280;58572;48.110;19.838;2022-08-30T10:05:34;98061.06;;;22.21;66.56
70921;BME280;58572;48.110;19.838;2022-08-30T10:08:12;98059.25;;;22.13;66.69
70921;BME280;58572;48.110;19.838;2022-08-30T10:10:48;98062.75;;;21.70;71.32
70921;BME280;58572;48.110;19.838;2022-08-30T10:13:40;98066.06;;;21.75;69.71
70921;BME280;58572;48.110;19.838;2022-08-30T10:16:18;98063.47;;;22.22;68.99
70921;BME280;58572;48.110;19.838;2022-08-30T10:18:55;98055.16;;;22.38;70.69
70921;BME280;58572;48.110;19.838;2022-08-30T10:21:26;98050.75;;;23.16;66.73
70921;BME280;58572;48.110;19.838;2022-08-30T10:24:02;98048.75;;;22.50;61.90
70921;BME280;58572;48.110;19.838;2022-08-30T10:26:34;98056.44;;;21.97;67.31
70921;BME280;58572;48.110;19.838;2022-08-30T10:29:06;98056.22;;;21.90;69.03
70921;BME280;58572;48.110;19.838;2022-08-30T10:31:39;97775.53;;;19.92;63.91
70921;BME280;58572;48.110;19.838;2022-08-30T10:34:14;98048.81;;;22.69;64.22
70921;BME280;58572;48.110;19.838;2022-08-30T10:36:47;98035.41;;;23.03;62.56
70921;BME280;58572;48.110;19.838;2022-08-30T10:39:18;98047.84;;;23.28;63.29
70921;BME280;58572;48.110;19.838;2022-08-30T10:41:49;98043.09;;;23.64;58.58
70921;BME280;58572;48.110;19.838;2022-08-30T10:44:21;98035.34;;;23.73;56.50
70921;BME280;58572;48.110;19.838;2022-08-30T10:47:00;98032.13;;;23.71;57.76
70921;BME280;58572;48.110;19.838;2022-08-30T10:49:32;98032.97;;;23.36;60.38
70921;BME280;58572;48.110;19.838;2022-08-30T10:52:18;97989.00;;;23.19;60.15
70921;BME280;58572;48.110;19.838;2022-08-30T10:54:50;98011.00;;;23.47;59.24
70921;BME280;58572;48.110;19.838;2022-08-30T10:57:18;98021.09;;;23.74;60.80
70921;BME280;58572;48.110;19.838;2022-08-30T10:59:51;98022.47;;;24.03;58.59
70921;BME280;58572;48.110;19.838;2022-08-30T11:02:44;98017.09;;;24.14;53.23
70921;BME280;58572;48.110;19.838;2022-08-30T11:05:42;98016.09;;;24.45;54.83
70921;BME280;58572;48.110;19.838;2022-08-30T11:08:20;98027.53;;;24.20;52.01
70921;BME280;58572;48.110;19.838;2022-08-30T11:10:58;98006.66;;;24.27;51.65
70921;BME280;58572;48.110;19.838;2022-08-30T11:13:34;98014.66;;;24.55;55.59
70921;BME280;58572;48.110;19.838;2022-08-30T11:16:05;98007.66;;;24.18;57.25
70921;BME280;58572;48.110;19.838;2022-08-30T11:18:42;98005.41;;;24.73;56.61
70921;BME280;58572;48.110;19.838;2022-08-30T11:21:20;98006.56;;;24.46;57.05
70921;BME280;58572;48.110;19.838;2022-08-30T11:24:08;98008.69;;;24.30;56.82
70921;BME280;58572;48.110;19.838;2022-08-30T11:29:37;98010.53;;;24.45;55.77
70921;BME280;58572;48.110;19.838;2022-08-30T11:35:05;97999.22;;;24.83;48.57
70921;BME280;58572;48.110;19.838;2022-08-30T11:37:36;97996.97;;;24.66;48.21
70921;BME280;58572;48.110;19.838;2022-08-30T11:40:48;97990.44;;;24.81;50.86
70921;BME280;58572;48.110;19.838;2022-08-30T11:46:36;97982.97;;;24.86;45.41
70921;BME280;58572;48.110;19.838;2022-08-30T11:49:35;97937.09;;;24.00;50.18
70921;BME280;58572;48.110;19.838;2022-08-30T11:52:32;97982.63;;;24.38;51.40
70921;BME280;58572;48.110;19.838;2022-08-30T11:55:18;97981.97;;;24.48;50.39
70921;BME280;58572;48.110;19.838;2022-08-30T11:57:58;97975.47;;;24.90;48.53
70921;BME280;58572;48.110;19.838;2022-08-30T12:00:33;97971.47;;;25.43;47.64
70921;BME280;58572;48.110;19.838;2022-08-30T12:03:02;97977.06;;;25.13;50.45
70921;BME280;58572;48.110;19.838;2022-08-30T12:05:53;97980.66;;;24.91;49.79
70921;BME280;58572;48.110;19.838;2022-08-30T12:08:44;97971.66;;;25.28;47.94
70921;BME280;58572;48.110;19.838;2022-08-30T12:14:46;97951.16;;;25.73;44.79
70921;BME280;58572;48.110;19.838;2022-08-30T12:17:32;97956.63;;;25.66;49.23
70921;BME280;58572;48.110;19.838;2022-08-30T12:20:38;97950.91;;;25.55;48.44
70921;BME280;58572;48.110;19.838;2022-08-30T12:23:17;97947.50;;;25.35;47.99
70921;BME280;58572;48.110;19.838;2022-08-30T12:25:45;97949.00;;;25.63;43.81
70921;BME280;58572;48.110;19.838;2022-08-30T12:28:14;97941.25;;;25.45;45.38
70921;BME280;58572;48.110;19.838;2022-08-30T12:30:43;97831.75;;;24.67;49.01
70921;BME280;58572;48.110;19.838;2022-08-30T12:33:12;97930.13;;;25.45;47.34
70921;BME280;58572;48.110;19.838;2022-08-30T12:35:41;97932.19;;;25.52;47.84
70921;BME280;58572;48.110;19.838;2022-08-30T12:38:16;97922.16;;;25.44;47.45
70921;BME280;58572;48.110;19.838;2022-08-30T12:40:49;97918.31;;;25.56;49.23
70921;BME280;58572;48.110;19.838;2022-08-30T12:43:24;97914.53;;;25.71;48.15
70921;BME280;58572;48.110;19.838;2022-08-30T12:45:54;97921.09;;;25.22;45.69
70921;BME280;58572;48.110;19.838;2022-08-30T12:48:23;97890.50;;;24.96;46.24
70921;BME280;58572;48.110;19.838;2022-08-30T12:50:53;97910.13;;;26.11;47.16
70921;BME280;58572;48.110;19.838;2022-08-30T12:53:24;97907.94;;;25.90;47.12
70921;BME280;58572;48.110;19.838;2022-08-30T12:55:54;97897.13;;;25.81;45.41
70921;BME280;58572;48.110;19.838;2022-08-30T12:58:40;97861.84;;;25.59;48.25
70921;BME280;58572;48.110;19.838;2022-08-30T13:01:30;97912.44;;;25.64;46.72
70921;BME280;58572;48.110;19.838;2022-08-30T13:04:00;97830.63;;;24.72;47.87
70921;BME280;58572;48.110;19.838;2022-08-30T13:06:48;97907.00;;;24.81;47.09
70921;BME280;58572;48.110;19.838;2022-08-30T13:09:25;97890.19;;;25.31;48.16
70921;BME280;58572;48.110;19.838;2022-08-30T13:11:53;97855.44;;;24.28;50.66
70921;BME280;58572;48.110;19.838;2022-08-30T13:14:31;97894.19;;;25.33;46.50
70921;BME280;58572;48.110;19.838;2022-08-30T13:17:22;97899.59;;;25.19;51.98
70921;BME280;58572;48.110;19.838;2022-08-30T13:19:59;97878.84;;;25.84;48.50
70921;BME280;58572;48.110;19.838;2022-08-30T13:22:28;97887.13;;;24.79;56.56
70921;BME280;58572;48.110;19.838;2022-08-30T13:24:56;97891.41;;;25.00;45.58